Awaji Maru — JD2988 — position and weather

sailwx.info

Track history (hours):
 
Tides and Currents Weather Stations Pressure Air Temp Water Temp Dewpoint Dewpoint Depression Visibility Wind Speed Wind Dir Waves Ship Positions

Awaji Maru

Last reported at 2016-Jun-27 18:33 UTC. Time now 2016-Jun-27 18:40 UTC.
Position N 35°27' E 139°38'.

Length 37 m; draft 3 m.

Type: Tug. MMSI: 431001074.

Date/timePositionNaut miles runAvg speedWind from/ knotsBaromVisibWave heightAir tempDewpointWater temp
2016-Jun-27 18:33N 35°27' E 139°38'0 0.0
2016-Jun-27 17:33N 35°27' E 139°38'0 0.0
2016-Jun-27 16:33N 35°27' E 139°38'0 0.0
2016-Jun-27 15:33N 35°27' E 139°38'0 0.0
2016-Jun-27 14:33N 35°27' E 139°38'0 0.0
2016-Jun-27 13:33N 35°27' E 139°38'0 0.0
2016-Jun-27 12:33N 35°27' E 139°38'0 0.0
2016-Jun-27 11:33N 35°27' E 139°38'0 0.0
2016-Jun-27 10:33N 35°27' E 139°38'0 0.0
2016-Jun-27 09:33N 35°27' E 139°38'0 0.0
2016-Jun-27 08:33N 35°27' E 139°38'0 0.0
2016-Jun-27 07:34N 35°27' E 139°38'0 0.0
2016-Jun-27 06:33N 35°27' E 139°38'0 0.0
2016-Jun-27 05:33N 35°27' E 139°38'5 4.8
2016-Jun-27 04:33N 35°30' E 139°44'2 2.5
2016-Jun-27 03:33N 35°27' E 139°43'1 0.6
2016-Jun-27 02:33N 35°27' E 139°42'0 0.0
2016-Jun-27 01:33N 35°27' E 139°42'0 0.0
2016-Jun-27 00:33N 35°27' E 139°42'1 0.6
2016-Jun-26 23:33N 35°27' E 139°41'1 1.0
2016-Jun-26 22:34N 35°27' E 139°40'2 1.6
2016-Jun-26 21:33N 35°27' E 139°38'0 0.0
2016-Jun-26 20:33N 35°27' E 139°38'0 0.0
2016-Jun-26 19:33N 35°27' E 139°38'0 0.0
2016-Jun-26 18:33N 35°27' E 139°38'0 0.0
2016-Jun-26 17:33N 35°27' E 139°38'0 0.0
2016-Jun-26 16:33N 35°27' E 139°38'0 0.0
2016-Jun-26 15:33N 35°27' E 139°38'0 0.0
2016-Jun-26 14:33N 35°27' E 139°38'0 0.0
2016-Jun-26 13:33N 35°27' E 139°38'0 0.0
2016-Jun-26 12:33N 35°27' E 139°38'0 0.0
2016-Jun-26 11:33N 35°27' E 139°38'0 0.0
2016-Jun-26 10:33N 35°27' E 139°38'0 0.0
2016-Jun-26 09:33N 35°27' E 139°38'0 0.0
2016-Jun-26 08:33N 35°27' E 139°38'0 0.0
2016-Jun-26 07:33N 35°27' E 139°38'0 0.0
2016-Jun-26 06:33N 35°27' E 139°38'0 0.0
2016-Jun-26 05:33N 35°27' E 139°38'0 0.0
2016-Jun-26 04:33N 35°27' E 139°38'0 0.0
2016-Jun-26 03:33N 35°27' E 139°38'0 0.0
2016-Jun-26 02:33N 35°27' E 139°38'0 0.0
2016-Jun-26 01:33N 35°27' E 139°38'0 0.0
2016-Jun-26 00:33N 35°27' E 139°38'0 0.0
2016-Jun-25 23:33N 35°27' E 139°38'0 0.0
2016-Jun-25 22:33N 35°27' E 139°38'4 3.9
2016-Jun-25 21:34N 35°24' E 139°41'2 1.5
2016-Jun-25 20:33N 35°23' E 139°42'1 1.1
2016-Jun-25 19:33N 35°23' E 139°40'1 1.0
2016-Jun-25 18:33N 35°24' E 139°41'0 0.1
2016-Jun-25 17:34N 35°24' E 139°41'4 3.8
2016-Jun-25 16:33N 35°27' E 139°39'0 0.0
2016-Jun-25 15:33N 35°27' E 139°39'0 0.0
2016-Jun-25 14:33N 35°27' E 139°39'0 0.0
2016-Jun-25 13:33N 35°27' E 139°39'0 0.0
2016-Jun-25 12:33N 35°27' E 139°39'0 0.0
2016-Jun-25 11:33N 35°27' E 139°39'4 3.8
2016-Jun-25 10:33N 35°24' E 139°41'1 0.9
2016-Jun-25 09:34N 35°23' E 139°41'3 2.8
2016-Jun-25 08:33N 35°26' E 139°42'1 1.0
2016-Jun-25 07:33N 35°27' E 139°41'0 0.1
2016-Jun-25 06:34N 35°27' E 139°41'3 2.6
2016-Jun-25 05:33N 35°29' E 139°42'3 3.3
2016-Jun-25 04:34N 35°30' E 139°46'5 4.5
2016-Jun-25 03:33N 35°27' E 139°43'3 2.7
2016-Jun-25 02:33N 35°27' E 139°40'0 0.0
2016-Jun-25 01:33N 35°27' E 139°40'0 0.0
2016-Jun-25 00:33N 35°27' E 139°40'2 1.8
2016-Jun-24 23:33N 35°28' E 139°42'2 1.9
2016-Jun-24 22:33N 35°27' E 139°44'1 0.9
2016-Jun-24 21:33N 35°26' E 139°43'4 3.7
2016-Jun-24 20:33N 35°27' E 139°38'0 0.0
2016-Jun-24 19:33N 35°27' E 139°38'0 0.0
2016-Jun-24 18:33N 35°27' E 139°38'0 0.0
2016-Jun-24 17:33N 35°27' E 139°38'0 0.0
2016-Jun-24 16:33N 35°27' E 139°38'0 0.0
2016-Jun-24 15:33N 35°27' E 139°38'0 0.0
2016-Jun-24 14:33N 35°27' E 139°38'0 0.0
2016-Jun-24 13:33N 35°27' E 139°38'0 0.0
2016-Jun-24 12:33N 35°27' E 139°38'0 0.0
2016-Jun-24 11:33N 35°27' E 139°38'0 0.0
2016-Jun-24 10:33N 35°27' E 139°38'0 0.0
2016-Jun-24 09:33N 35°27' E 139°38'0 0.0
2016-Jun-24 08:33N 35°27' E 139°38'0 0.0
2016-Jun-24 07:33N 35°27' E 139°38'0 0.0
2016-Jun-24 06:33N 35°27' E 139°38'0 0.0
2016-Jun-24 04:33N 35°27' E 139°38'2 2.2
2016-Jun-24 03:34N 35°26' E 139°41'3 2.8
2016-Jun-24 02:33N 35°26' E 139°44'2 2.0
2016-Jun-24 01:33N 35°28' E 139°42'4 4.4
2016-Jun-24 00:33N 35°31' E 139°46'1 0.6
2016-Jun-23 23:33N 35°30' E 139°46'1 1.4
2016-Jun-23 22:33N 35°30' E 139°44'3 2.7
2016-Jun-23 21:34N 35°27' E 139°43'0 0.2
2016-Jun-23 20:33N 35°27' E 139°43'4 3.7
2016-Jun-23 19:33N 35°27' E 139°38'0 0.0
2016-Jun-23 18:33N 35°27' E 139°38'0 0.0
2016-Jun-23 17:33N 35°27' E 139°38'0 0.0
2016-Jun-23 16:33N 35°27' E 139°38'0 0.0
2016-Jun-23 15:33N 35°27' E 139°38'0 0.0
2016-Jun-23 14:33N 35°27' E 139°38'0 0.0
2016-Jun-23 13:33N 35°27' E 139°38'0 0.0
2016-Jun-23 12:33N 35°27' E 139°38'0 0.0
2016-Jun-23 11:33N 35°27' E 139°38'1 1.1
2016-Jun-23 10:33N 35°28' E 139°39'1 1.3
2016-Jun-23 09:33N 35°28' E 139°40'1 1.4
2016-Jun-23 08:33N 35°27' E 139°42'6 5.6
2016-Jun-23 07:33N 35°31' E 139°46'6 2.9
2016-Jun-23 05:33N 35°26' E 139°42'3 2.5
2016-Jun-23 04:33N 35°27' E 139°39'1 0.8
2016-Jun-23 03:33N 35°27' E 139°38'0 0.0
2016-Jun-23 02:33N 35°27' E 139°38'0 0.0
2016-Jun-23 01:33N 35°27' E 139°38'0 0.0
2016-Jun-23 00:33N 35°27' E 139°38'0 0.0
2016-Jun-22 23:33N 35°27' E 139°38'0 0.0
2016-Jun-22 22:33N 35°27' E 139°38'0 0.0
2016-Jun-22 21:33N 35°27' E 139°38'0 0.0
2016-Jun-22 20:33N 35°27' E 139°38'0 0.0
2016-Jun-22 19:33N 35°27' E 139°38'0 0.0
2016-Jun-22 18:33N 35°27' E 139°38'0 0.0
2016-Jun-22 17:33N 35°27' E 139°38'0 0.0
2016-Jun-22 16:33N 35°27' E 139°38'0 0.0
2016-Jun-22 15:33N 35°27' E 139°38'0 0.0
2016-Jun-22 14:33N 35°27' E 139°38'0 0.0
2016-Jun-22 13:33N 35°27' E 139°38'0 0.0
2016-Jun-22 12:33N 35°27' E 139°38'0 0.0
2016-Jun-22 11:33N 35°27' E 139°38'0 0.0
2016-Jun-22 10:33N 35°27' E 139°38'0 0.0
2016-Jun-22 09:33N 35°27' E 139°38'0 0.0
2016-Jun-22 08:33N 35°27' E 139°38'0 0.0
2016-Jun-22 07:33N 35°27' E 139°38'0 0.0
2016-Jun-22 06:33N 35°27' E 139°38'0 0.0
2016-Jun-22 05:33N 35°27' E 139°38'0 0.0
2016-Jun-22 04:33N 35°27' E 139°38'0 0.0
2016-Jun-22 03:33N 35°27' E 139°38'0 0.0
2016-Jun-22 02:33N 35°27' E 139°38'0 0.0
2016-Jun-22 01:33N 35°27' E 139°38'0 0.0
2016-Jun-22 00:33N 35°27' E 139°38'4 3.9
2016-Jun-21 23:33N 35°25' E 139°42'1 1.4
2016-Jun-21 22:33N 35°23' E 139°42'4 4.1
2016-Jun-21 21:33N 35°27' E 139°45'2 2.3
2016-Jun-21 20:33N 35°29' E 139°44'1 0.7
2016-Jun-21 19:33N 35°29' E 139°45'4 4.4
2016-Jun-21 18:33N 35°27' E 139°40'2 1.6
2016-Jun-21 17:33N 35°27' E 139°39'0 0.0
2016-Jun-21 16:33N 35°27' E 139°39'0 0.0
2016-Jun-21 15:33N 35°27' E 139°39'0 0.0
2016-Jun-21 14:33N 35°27' E 139°39'0 0.0
2016-Jun-21 13:33N 35°27' E 139°39'0 0.0
2016-Jun-21 12:33N 35°27' E 139°39'0 0.0
2016-Jun-21 11:33N 35°27' E 139°39'0 0.0
2016-Jun-21 10:33N 35°27' E 139°39'2 2.3
2016-Jun-21 09:33N 35°27' E 139°41'1 1.1
2016-Jun-21 08:33N 35°28' E 139°41'0 0.0
2016-Jun-21 07:33N 35°28' E 139°41'0 0.0
2016-Jun-21 05:33N 35°28' E 139°40'0 0.0
2016-Jun-21 04:33N 35°28' E 139°40'3 2.7
2016-Jun-21 03:33N 35°29' E 139°43'1 0.8
2016-Jun-21 02:33N 35°30' E 139°44'3 2.6
2016-Jun-21 01:34N 35°27' E 139°43'4 3.7
2016-Jun-21 00:33N 35°27' E 139°38'0 0.0
2016-Jun-20 23:33N 35°27' E 139°38'0 0.0
2016-Jun-20 22:33N 35°27' E 139°38'0 0.0
2016-Jun-20 21:33N 35°27' E 139°38'0 0.0
2016-Jun-20 20:33N 35°27' E 139°38'0 0.0
2016-Jun-20 19:33N 35°27' E 139°38'0 0.0
2016-Jun-20 18:33N 35°27' E 139°38'0 0.0
2016-Jun-20 17:33N 35°27' E 139°38'0 0.0
2016-Jun-20 16:33N 35°27' E 139°38'0 0.0
2016-Jun-20 15:33N 35°27' E 139°38'0 0.0
2016-Jun-20 14:33N 35°27' E 139°38'0 0.0
2016-Jun-20 13:33N 35°27' E 139°38'0 0.0
2016-Jun-20 12:33N 35°27' E 139°38'0 0.0
2016-Jun-20 11:33N 35°27' E 139°38'0 0.0
2016-Jun-20 10:33N 35°27' E 139°38'0 0.0
2016-Jun-20 09:33N 35°27' E 139°38'2 2.0
2016-Jun-20 08:33N 35°27' E 139°41'3 3.2
2016-Jun-20 07:33N 35°26' E 139°44'2 2.1
2016-Jun-20 06:33N 35°27' E 139°42'2 1.9
2016-Jun-20 05:33N 35°28' E 139°44'2 2.3
2016-Jun-20 04:33N 35°30' E 139°45'4 3.9
2016-Jun-20 03:33N 35°27' E 139°42'2 1.9
2016-Jun-20 02:33N 35°28' E 139°41'1 0.9
2016-Jun-20 01:33N 35°27' E 139°41'3 2.8
2016-Jun-20 00:33N 35°25' E 139°39'2 2.2
2016-Jun-19 23:33N 35°23' E 139°41'3 3.1
2016-Jun-19 22:33N 35°26' E 139°42'3 2.8
2016-Jun-19 21:33N 35°27' E 139°39'0 0.0
2016-Jun-19 20:33N 35°27' E 139°39'0 0.0
2016-Jun-19 19:33N 35°27' E 139°39'0 0.0
2016-Jun-19 18:33N 35°27' E 139°39'0 0.0
2016-Jun-19 17:33N 35°27' E 139°39'0 0.0
2016-Jun-19 16:33N 35°27' E 139°39'0 0.0
2016-Jun-19 15:33N 35°27' E 139°39'0 0.0
2016-Jun-19 14:33N 35°27' E 139°39'0 0.0
2016-Jun-19 13:33N 35°27' E 139°39'0 0.0
2016-Jun-19 12:33N 35°27' E 139°39'0 0.0
2016-Jun-19 11:33N 35°27' E 139°39'0 0.0
2016-Jun-19 10:33N 35°27' E 139°39'2 2.3
2016-Jun-19 09:33N 35°26' E 139°41'2 1.6
2016-Jun-19 08:33N 35°26' E 139°43'1 0.7
2016-Jun-19 07:33N 35°26' E 139°42'0 0.3
2016-Jun-19 06:34N 35°26' E 139°42'2 2.1
2016-Jun-19 05:33N 35°27' E 139°40'4 3.8
2016-Jun-19 04:34N 35°24' E 139°42'1 0.8
2016-Jun-19 03:33N 35°24' E 139°41'2 1.7
2016-Jun-19 02:33N 35°26' E 139°42'0 0.0
2016-Jun-19 01:33N 35°26' E 139°42'0 0.0
2016-Jun-19 00:33N 35°26' E 139°42'0 0.0
2016-Jun-18 23:33N 35°26' E 139°42'1 0.7
2016-Jun-18 22:34N 35°25' E 139°41'1 1.1
2016-Jun-18 21:33N 35°25' E 139°42'4 3.8
2016-Jun-18 20:33N 35°27' E 139°39'0 0.0
2016-Jun-18 19:33N 35°27' E 139°39'0 0.0
2016-Jun-18 18:33N 35°27' E 139°39'0 0.0
2016-Jun-18 17:33N 35°27' E 139°39'0 0.0
2016-Jun-18 16:33N 35°27' E 139°39'0 0.0
2016-Jun-18 15:33N 35°27' E 139°39'0 0.0
2016-Jun-18 14:33N 35°27' E 139°39'0 0.0
2016-Jun-18 13:33N 35°27' E 139°39'0 0.0
2016-Jun-18 12:33N 35°27' E 139°39'0 0.0
2016-Jun-18 11:33N 35°27' E 139°39'0 0.0
2016-Jun-18 10:33N 35°27' E 139°39'4 4.0
2016-Jun-18 09:33N 35°24' E 139°42'1 1.2
2016-Jun-18 08:33N 35°24' E 139°41'2 1.6
2016-Jun-18 07:33N 35°25' E 139°42'3 2.9
2016-Jun-18 06:33N 35°28' E 139°40'0 0.4
2016-Jun-18 05:33N 35°27' E 139°40'6 6.0
2016-Jun-18 04:33N 35°31' E 139°46'6 5.7
2016-Jun-18 03:33N 35°28' E 139°41'0 0.0
2016-Jun-18 02:33N 35°28' E 139°41'0 0.0
2016-Jun-18 01:33N 35°28' E 139°41'0 0.0
2016-Jun-18 00:33N 35°28' E 139°41'0 0.0
2016-Jun-17 23:33N 35°28' E 139°41'2 2.0
2016-Jun-17 22:33N 35°26' E 139°42'3 3.4
2016-Jun-17 21:33N 35°27' E 139°38'0 0.1
2016-Jun-17 20:33N 35°27' E 139°38'0 0.0
2016-Jun-17 19:33N 35°27' E 139°38'0 0.0
2016-Jun-17 18:33N 35°27' E 139°38'  
Track history (hours):
 
Tides and Currents Weather Stations Pressure Air Temp Water Temp Dewpoint Dewpoint Depression Visibility Wind Speed Wind Dir Waves Ship Positions

Awaji Maru

Last reported at 2016-Jun-27 18:33 UTC. Time now 2016-Jun-27 18:40 UTC.
Position N 35°27' E 139°38'.

Length 37 m; draft 3 m.

Type: Tug. MMSI: 431001074.

Date/timePositionNaut miles runAvg speedWind from/ knotsBaromVisibWave heightAir tempDewpointWater temp
2016-Jun-27 18:33N 35°27' E 139°38'0 0.0
2016-Jun-27 17:33N 35°27' E 139°38'0 0.0
2016-Jun-27 16:33N 35°27' E 139°38'0 0.0
2016-Jun-27 15:33N 35°27' E 139°38'0 0.0
2016-Jun-27 14:33N 35°27' E 139°38'0 0.0
2016-Jun-27 13:33N 35°27' E 139°38'0 0.0
2016-Jun-27 12:33N 35°27' E 139°38'0 0.0
2016-Jun-27 11:33N 35°27' E 139°38'0 0.0
2016-Jun-27 10:33N 35°27' E 139°38'0 0.0
2016-Jun-27 09:33N 35°27' E 139°38'0 0.0
2016-Jun-27 08:33N 35°27' E 139°38'0 0.0
2016-Jun-27 07:34N 35°27' E 139°38'0 0.0
2016-Jun-27 06:33N 35°27' E 139°38'0 0.0
2016-Jun-27 05:33N 35°27' E 139°38'5 4.8
2016-Jun-27 04:33N 35°30' E 139°44'2 2.5
2016-Jun-27 03:33N 35°27' E 139°43'1 0.6
2016-Jun-27 02:33N 35°27' E 139°42'0 0.0
2016-Jun-27 01:33N 35°27' E 139°42'0 0.0
2016-Jun-27 00:33N 35°27' E 139°42'1 0.6
2016-Jun-26 23:33N 35°27' E 139°41'1 1.0
2016-Jun-26 22:34N 35°27' E 139°40'2 1.6
2016-Jun-26 21:33N 35°27' E 139°38'0 0.0
2016-Jun-26 20:33N 35°27' E 139°38'0 0.0
2016-Jun-26 19:33N 35°27' E 139°38'0 0.0
2016-Jun-26 18:33N 35°27' E 139°38'0 0.0
2016-Jun-26 17:33N 35°27' E 139°38'0 0.0
2016-Jun-26 16:33N 35°27' E 139°38'0 0.0
2016-Jun-26 15:33N 35°27' E 139°38'0 0.0
2016-Jun-26 14:33N 35°27' E 139°38'0 0.0
2016-Jun-26 13:33N 35°27' E 139°38'0 0.0
2016-Jun-26 12:33N 35°27' E 139°38'0 0.0
2016-Jun-26 11:33N 35°27' E 139°38'0 0.0
2016-Jun-26 10:33N 35°27' E 139°38'0 0.0
2016-Jun-26 09:33N 35°27' E 139°38'0 0.0
2016-Jun-26 08:33N 35°27' E 139°38'0 0.0
2016-Jun-26 07:33N 35°27' E 139°38'0 0.0
2016-Jun-26 06:33N 35°27' E 139°38'0 0.0
2016-Jun-26 05:33N 35°27' E 139°38'0 0.0
2016-Jun-26 04:33N 35°27' E 139°38'0 0.0
2016-Jun-26 03:33N 35°27' E 139°38'0 0.0
2016-Jun-26 02:33N 35°27' E 139°38'0 0.0
2016-Jun-26 01:33N 35°27' E 139°38'0 0.0
2016-Jun-26 00:33N 35°27' E 139°38'0 0.0
2016-Jun-25 23:33N 35°27' E 139°38'0 0.0
2016-Jun-25 22:33N 35°27' E 139°38'4 3.9
2016-Jun-25 21:34N 35°24' E 139°41'2 1.5
2016-Jun-25 20:33N 35°23' E 139°42'1 1.1
2016-Jun-25 19:33N 35°23' E 139°40'1 1.0
2016-Jun-25 18:33N 35°24' E 139°41'0 0.1
2016-Jun-25 17:34N 35°24' E 139°41'4 3.8
2016-Jun-25 16:33N 35°27' E 139°39'0 0.0
2016-Jun-25 15:33N 35°27' E 139°39'0 0.0
2016-Jun-25 14:33N 35°27' E 139°39'0 0.0
2016-Jun-25 13:33N 35°27' E 139°39'0 0.0
2016-Jun-25 12:33N 35°27' E 139°39'0 0.0
2016-Jun-25 11:33N 35°27' E 139°39'4 3.8
2016-Jun-25 10:33N 35°24' E 139°41'1 0.9
2016-Jun-25 09:34N 35°23' E 139°41'3 2.8
2016-Jun-25 08:33N 35°26' E 139°42'1 1.0
2016-Jun-25 07:33N 35°27' E 139°41'0 0.1
2016-Jun-25 06:34N 35°27' E 139°41'3 2.6
2016-Jun-25 05:33N 35°29' E 139°42'3 3.3
2016-Jun-25 04:34N 35°30' E 139°46'5 4.5
2016-Jun-25 03:33N 35°27' E 139°43'3 2.7
2016-Jun-25 02:33N 35°27' E 139°40'0 0.0
2016-Jun-25 01:33N 35°27' E 139°40'0 0.0
2016-Jun-25 00:33N 35°27' E 139°40'2 1.8
2016-Jun-24 23:33N 35°28' E 139°42'2 1.9
2016-Jun-24 22:33N 35°27' E 139°44'1 0.9
2016-Jun-24 21:33N 35°26' E 139°43'4 3.7
2016-Jun-24 20:33N 35°27' E 139°38'0 0.0
2016-Jun-24 19:33N 35°27' E 139°38'0 0.0
2016-Jun-24 18:33N 35°27' E 139°38'0 0.0
2016-Jun-24 17:33N 35°27' E 139°38'0 0.0
2016-Jun-24 16:33N 35°27' E 139°38'0 0.0
2016-Jun-24 15:33N 35°27' E 139°38'0 0.0
2016-Jun-24 14:33N 35°27' E 139°38'0 0.0
2016-Jun-24 13:33N 35°27' E 139°38'0 0.0
2016-Jun-24 12:33N 35°27' E 139°38'0 0.0
2016-Jun-24 11:33N 35°27' E 139°38'0 0.0
2016-Jun-24 10:33N 35°27' E 139°38'0 0.0
2016-Jun-24 09:33N 35°27' E 139°38'0 0.0
2016-Jun-24 08:33N 35°27' E 139°38'0 0.0
2016-Jun-24 07:33N 35°27' E 139°38'0 0.0
2016-Jun-24 06:33N 35°27' E 139°38'0 0.0
2016-Jun-24 04:33N 35°27' E 139°38'2 2.2
2016-Jun-24 03:34N 35°26' E 139°41'3 2.8
2016-Jun-24 02:33N 35°26' E 139°44'2 2.0
2016-Jun-24 01:33N 35°28' E 139°42'4 4.4
2016-Jun-24 00:33N 35°31' E 139°46'1 0.6
2016-Jun-23 23:33N 35°30' E 139°46'1 1.4
2016-Jun-23 22:33N 35°30' E 139°44'3 2.7
2016-Jun-23 21:34N 35°27' E 139°43'0 0.2
2016-Jun-23 20:33N 35°27' E 139°43'4 3.7
2016-Jun-23 19:33N 35°27' E 139°38'0 0.0
2016-Jun-23 18:33N 35°27' E 139°38'0 0.0
2016-Jun-23 17:33N 35°27' E 139°38'0 0.0
2016-Jun-23 16:33N 35°27' E 139°38'0 0.0
2016-Jun-23 15:33N 35°27' E 139°38'0 0.0
2016-Jun-23 14:33N 35°27' E 139°38'0 0.0
2016-Jun-23 13:33N 35°27' E 139°38'0 0.0
2016-Jun-23 12:33N 35°27' E 139°38'0 0.0
2016-Jun-23 11:33N 35°27' E 139°38'1 1.1
2016-Jun-23 10:33N 35°28' E 139°39'1 1.3
2016-Jun-23 09:33N 35°28' E 139°40'1 1.4
2016-Jun-23 08:33N 35°27' E 139°42'6 5.6
2016-Jun-23 07:33N 35°31' E 139°46'6 2.9
2016-Jun-23 05:33N 35°26' E 139°42'3 2.5
2016-Jun-23 04:33N 35°27' E 139°39'1 0.8
2016-Jun-23 03:33N 35°27' E 139°38'0 0.0
2016-Jun-23 02:33N 35°27' E 139°38'0 0.0
2016-Jun-23 01:33N 35°27' E 139°38'0 0.0
2016-Jun-23 00:33N 35°27' E 139°38'0 0.0
2016-Jun-22 23:33N 35°27' E 139°38'0 0.0
2016-Jun-22 22:33N 35°27' E 139°38'0 0.0
2016-Jun-22 21:33N 35°27' E 139°38'0 0.0
2016-Jun-22 20:33N 35°27' E 139°38'0 0.0
2016-Jun-22 19:33N 35°27' E 139°38'0 0.0
2016-Jun-22 18:33N 35°27' E 139°38'0 0.0
2016-Jun-22 17:33N 35°27' E 139°38'0 0.0
2016-Jun-22 16:33N 35°27' E 139°38'0 0.0
2016-Jun-22 15:33N 35°27' E 139°38'0 0.0
2016-Jun-22 14:33N 35°27' E 139°38'0 0.0
2016-Jun-22 13:33N 35°27' E 139°38'0 0.0
2016-Jun-22 12:33N 35°27' E 139°38'0 0.0
2016-Jun-22 11:33N 35°27' E 139°38'0 0.0
2016-Jun-22 10:33N 35°27' E 139°38'0 0.0
2016-Jun-22 09:33N 35°27' E 139°38'0 0.0
2016-Jun-22 08:33N 35°27' E 139°38'0 0.0
2016-Jun-22 07:33N 35°27' E 139°38'0 0.0
2016-Jun-22 06:33N 35°27' E 139°38'0 0.0
2016-Jun-22 05:33N 35°27' E 139°38'0 0.0
2016-Jun-22 04:33N 35°27' E 139°38'0 0.0
2016-Jun-22 03:33N 35°27' E 139°38'0 0.0
2016-Jun-22 02:33N 35°27' E 139°38'0 0.0
2016-Jun-22 01:33N 35°27' E 139°38'0 0.0
2016-Jun-22 00:33N 35°27' E 139°38'4 3.9
2016-Jun-21 23:33N 35°25' E 139°42'1 1.4
2016-Jun-21 22:33N 35°23' E 139°42'4 4.1
2016-Jun-21 21:33N 35°27' E 139°45'2 2.3
2016-Jun-21 20:33N 35°29' E 139°44'1 0.7
2016-Jun-21 19:33N 35°29' E 139°45'4 4.4
2016-Jun-21 18:33N 35°27' E 139°40'2 1.6
2016-Jun-21 17:33N 35°27' E 139°39'0 0.0
2016-Jun-21 16:33N 35°27' E 139°39'0 0.0
2016-Jun-21 15:33N 35°27' E 139°39'0 0.0
2016-Jun-21 14:33N 35°27' E 139°39'0 0.0
2016-Jun-21 13:33N 35°27' E 139°39'0 0.0
2016-Jun-21 12:33N 35°27' E 139°39'0 0.0
2016-Jun-21 11:33N 35°27' E 139°39'0 0.0
2016-Jun-21 10:33N 35°27' E 139°39'2 2.3
2016-Jun-21 09:33N 35°27' E 139°41'1 1.1
2016-Jun-21 08:33N 35°28' E 139°41'0 0.0
2016-Jun-21 07:33N 35°28' E 139°41'0 0.0
2016-Jun-21 05:33N 35°28' E 139°40'0 0.0
2016-Jun-21 04:33N 35°28' E 139°40'3 2.7
2016-Jun-21 03:33N 35°29' E 139°43'1 0.8
2016-Jun-21 02:33N 35°30' E 139°44'3 2.6
2016-Jun-21 01:34N 35°27' E 139°43'4 3.7
2016-Jun-21 00:33N 35°27' E 139°38'0 0.0
2016-Jun-20 23:33N 35°27' E 139°38'0 0.0
2016-Jun-20 22:33N 35°27' E 139°38'0 0.0
2016-Jun-20 21:33N 35°27' E 139°38'0 0.0
2016-Jun-20 20:33N 35°27' E 139°38'0 0.0
2016-Jun-20 19:33N 35°27' E 139°38'0 0.0
2016-Jun-20 18:33N 35°27' E 139°38'0 0.0
2016-Jun-20 17:33N 35°27' E 139°38'0 0.0
2016-Jun-20 16:33N 35°27' E 139°38'0 0.0
2016-Jun-20 15:33N 35°27' E 139°38'0 0.0
2016-Jun-20 14:33N 35°27' E 139°38'0 0.0
2016-Jun-20 13:33N 35°27' E 139°38'0 0.0
2016-Jun-20 12:33N 35°27' E 139°38'0 0.0
2016-Jun-20 11:33N 35°27' E 139°38'0 0.0
2016-Jun-20 10:33N 35°27' E 139°38'0 0.0
2016-Jun-20 09:33N 35°27' E 139°38'2 2.0
2016-Jun-20 08:33N 35°27' E 139°41'3 3.2
2016-Jun-20 07:33N 35°26' E 139°44'2 2.1
2016-Jun-20 06:33N 35°27' E 139°42'2 1.9
2016-Jun-20 05:33N 35°28' E 139°44'2 2.3
2016-Jun-20 04:33N 35°30' E 139°45'4 3.9
2016-Jun-20 03:33N 35°27' E 139°42'2 1.9
2016-Jun-20 02:33N 35°28' E 139°41'1 0.9
2016-Jun-20 01:33N 35°27' E 139°41'3 2.8
2016-Jun-20 00:33N 35°25' E 139°39'2 2.2
2016-Jun-19 23:33N 35°23' E 139°41'3 3.1
2016-Jun-19 22:33N 35°26' E 139°42'3 2.8
2016-Jun-19 21:33N 35°27' E 139°39'0 0.0
2016-Jun-19 20:33N 35°27' E 139°39'0 0.0
2016-Jun-19 19:33N 35°27' E 139°39'0 0.0
2016-Jun-19 18:33N 35°27' E 139°39'0 0.0
2016-Jun-19 17:33N 35°27' E 139°39'0 0.0
2016-Jun-19 16:33N 35°27' E 139°39'0 0.0
2016-Jun-19 15:33N 35°27' E 139°39'0 0.0
2016-Jun-19 14:33N 35°27' E 139°39'0 0.0
2016-Jun-19 13:33N 35°27' E 139°39'0 0.0
2016-Jun-19 12:33N 35°27' E 139°39'0 0.0
2016-Jun-19 11:33N 35°27' E 139°39'0 0.0
2016-Jun-19 10:33N 35°27' E 139°39'2 2.3
2016-Jun-19 09:33N 35°26' E 139°41'2 1.6
2016-Jun-19 08:33N 35°26' E 139°43'1 0.7
2016-Jun-19 07:33N 35°26' E 139°42'0 0.3
2016-Jun-19 06:34N 35°26' E 139°42'2 2.1
2016-Jun-19 05:33N 35°27' E 139°40'4 3.8
2016-Jun-19 04:34N 35°24' E 139°42'1 0.8
2016-Jun-19 03:33N 35°24' E 139°41'2 1.7
2016-Jun-19 02:33N 35°26' E 139°42'0 0.0
2016-Jun-19 01:33N 35°26' E 139°42'0 0.0
2016-Jun-19 00:33N 35°26' E 139°42'0 0.0
2016-Jun-18 23:33N 35°26' E 139°42'1 0.7
2016-Jun-18 22:34N 35°25' E 139°41'1 1.1
2016-Jun-18 21:33N 35°25' E 139°42'4 3.8
2016-Jun-18 20:33N 35°27' E 139°39'0 0.0
2016-Jun-18 19:33N 35°27' E 139°39'0 0.0
2016-Jun-18 18:33N 35°27' E 139°39'0 0.0
2016-Jun-18 17:33N 35°27' E 139°39'0 0.0
2016-Jun-18 16:33N 35°27' E 139°39'0 0.0
2016-Jun-18 15:33N 35°27' E 139°39'0 0.0
2016-Jun-18 14:33N 35°27' E 139°39'0 0.0
2016-Jun-18 13:33N 35°27' E 139°39'0 0.0
2016-Jun-18 12:33N 35°27' E 139°39'0 0.0
2016-Jun-18 11:33N 35°27' E 139°39'0 0.0
2016-Jun-18 10:33N 35°27' E 139°39'4 4.0
2016-Jun-18 09:33N 35°24' E 139°42'1 1.2
2016-Jun-18 08:33N 35°24' E 139°41'2 1.6
2016-Jun-18 07:33N 35°25' E 139°42'3 2.9
2016-Jun-18 06:33N 35°28' E 139°40'0 0.4
2016-Jun-18 05:33N 35°27' E 139°40'6 6.0
2016-Jun-18 04:33N 35°31' E 139°46'6 5.7
2016-Jun-18 03:33N 35°28' E 139°41'0 0.0
2016-Jun-18 02:33N 35°28' E 139°41'0 0.0
2016-Jun-18 01:33N 35°28' E 139°41'0 0.0
2016-Jun-18 00:33N 35°28' E 139°41'0 0.0
2016-Jun-17 23:33N 35°28' E 139°41'2 2.0
2016-Jun-17 22:33N 35°26' E 139°42'3 3.4
2016-Jun-17 21:33N 35°27' E 139°38'0 0.1
2016-Jun-17 20:33N 35°27' E 139°38'0 0.0
2016-Jun-17 19:33N 35°27' E 139°38'0 0.0
2016-Jun-17 18:33N 35°27' E 139°38'  

Dump ship's entire track history